Back to top

Cheyenne, WY weather

Cheyenne Regional/Jerry Olson Field, Cheyenne, WY: 12/11/2019 16:53
Visibility10 statute milesclear sky
View 7-Day Forecast
Area Summary
Sky/CloudsSky Clear
Weather [last 24 hours]None
Pressure29.98 in.Hg (1015 hPa)
3-hour Pressure Tendency0.02362 in.Hg (0.8 hPa) Increasing, then steady, or increasing then increasing more slowly
Dew Point12.9 °F (-10.6 °C)
Relative Humidity32.6 %
Temperature39.9 °F (4.4 °C)red thermometer
Wind Chill34.4 °F (1.35 °C)
Reading TimeMinimum to Maximum Temperature
6-hr ending 12/11@16:5339.9 °F to 46 °F (4.4 °C to 7.8 °C)
6-hr ending 12/11@10:5328.9 °F to 42.1 °F (-1.7 °C to 5.6 °C)
6-hr ending 12/11@04:5330.9 °F to 35.1 °F (-0.6 °C to 1.7 °C)
6-hr ending 12/10@22:5330.9 °F to 35.1 °F (-0.6 °C to 1.7 °C)
24-hr ending 12/10@23:5324.1 °F to 37 °F (-4.4 °C to 2.8 °C)
Wind8.06 MPH (7 KT) green arrow pointing 315 degrees
Wind FromNorthwest (310 Degrees)
Rolling 24-hr Peak Wind33.4 MPH (29 KT) on 12/11@15:36
Rolling 24-hr Peak Wind FromWest/Northwest (290 Degrees)
Twilight Begins06:42Sunshine Yesterday
Sunrise07:13N/A
Sunset16:32
Twilight Ends17:03
METARKCYS 112353Z 31007KT 10SM CLR 04/M11 A2998 RMK AO2 SLP150 T00441106 10078 20044 51008
Tags: